New Brighton, Minnesota
Current Conditions -  °F | °C
As of 10:34 PM on Wednesday 26 Nov 2014 (Local Time) from KANE Reporting Station
Broken Clouds Broken Clouds  
Wind Chill:   Ceiling: 9000
Heat Index: 16°   Visibility: 10mi
Dew Point:   Wind: 10mph
Humidity: 58%   Direction: 320°NW
Pressure: 30.37"   Gusts: NA
Location:  45.06°N, 93.19°W
Report Text: KANE 270434Z AUTO 32009KT 10SM SCT041 SCT050 BKN090 M09/M16 A3037 RMK AO2
Loading
Personal Weather Stations






























Interactive Weather Map New forecast layout! Learn more

10-Day Weather Forecast

Advertisements
Track Severe Weather on mobile